createdAt,value
2017-06-29T00:00:00.456Z,17.62
2017-06-29T00:00:04.765Z,17.61
2017-06-29T00:00:09.079Z,17.61
2017-06-29T00:00:13.527Z,17.61
2017-06-29T00:00:17.994Z,17.62
2017-06-29T00:00:22.415Z,17.6
2017-06-29T00:00:26.846Z,17.6
2017-06-29T00:00:31.274Z,17.6
2017-06-29T00:00:35.580Z,17.6
2017-06-29T00:00:40.013Z,17.59
2017-06-29T00:00:44.321Z,17.59
2017-06-29T00:00:48.747Z,17.59
2017-06-29T00:00:53.175Z,17.58
2017-06-29T00:00:57.606Z,17.59
2017-06-29T00:01:02.065Z,17.58
2017-06-29T00:01:06.486Z,17.57
2017-06-29T00:01:10.908Z,17.58
2017-06-29T00:01:15.330Z,17.58
2017-06-29T00:01:19.765Z,17.57
2017-06-29T00:01:24.069Z,17.57
2017-06-29T00:01:28.378Z,17.57
2017-06-29T00:01:32.683Z,17.57
2017-06-29T00:01:37.111Z,17.57
2017-06-29T00:01:41.430Z,17.56
2017-06-29T00:01:45.863Z,17.57
2017-06-29T00:01:50.288Z,17.56
2017-06-29T00:01:54.600Z,17.55
2017-06-29T00:01:59.037Z,17.55
2017-06-29T00:02:03.467Z,17.54
2017-06-29T00:02:07.772Z,17.54
2017-06-29T00:02:12.196Z,17.55
2017-06-29T00:02:16.618Z,17.55
2017-06-29T00:02:21.051Z,17.54
2017-06-29T00:02:25.482Z,17.54
2017-06-29T00:02:29.783Z,17.54
2017-06-29T00:02:34.205Z,17.54
2017-06-29T00:02:38.516Z,17.53
2017-06-29T00:02:42.944Z,17.53
2017-06-29T00:02:47.262Z,17.53
2017-06-29T00:02:51.694Z,17.53
2017-06-29T00:02:56.130Z,17.52
2017-06-29T00:03:00.575Z,17.52
2017-06-29T00:03:04.996Z,17.52
2017-06-29T00:03:09.300Z,17.51
2017-06-29T00:03:13.726Z,17.51
2017-06-29T00:03:18.032Z,17.51
2017-06-29T00:03:22.351Z,17.51
2017-06-29T00:03:26.784Z,17.5
2017-06-29T00:03:31.210Z,17.5
2017-06-29T00:03:35.518Z,17.5
2017-06-29T00:03:39.950Z,17.5
2017-06-29T00:03:44.320Z,17.5
2017-06-29T00:03:48.741Z,17.5
2017-06-29T00:03:53.049Z,17.49
2017-06-29T00:03:57.360Z,17.49
2017-06-29T00:04:02.048Z,17.49
2017-06-29T00:04:06.477Z,17.48
2017-06-29T00:04:10.787Z,17.48
2017-06-29T00:04:15.211Z,17.47
2017-06-29T00:04:19.639Z,17.47
2017-06-29T00:04:24.090Z,17.47
2017-06-29T00:04:28.526Z,17.47
2017-06-29T00:04:32.949Z,17.47
2017-06-29T00:04:37.253Z,17.46
2017-06-29T00:04:41.572Z,17.45
2017-06-29T00:04:46.035Z,17.46
2017-06-29T00:04:50.339Z,17.46
2017-06-29T00:04:54.763Z,17.45
2017-06-29T00:04:59.201Z,17.44
2017-06-29T00:05:03.681Z,17.45
2017-06-29T00:05:08.108Z,17.45
2017-06-29T00:05:12.552Z,17.45
2017-06-29T00:05:16.978Z,17.44
2017-06-29T00:05:21.409Z,17.43
2017-06-29T00:05:25.726Z,17.44
2017-06-29T00:05:30.154Z,17.44
2017-06-29T00:05:34.230Z,17.43
2017-06-29T00:05:38.659Z,17.43
2017-06-29T00:05:43.134Z,17.43
2017-06-29T00:05:47.573Z,17.43
2017-06-29T00:05:51.994Z,17.42
2017-06-29T00:05:56.302Z,17.42
2017-06-29T00:06:00.725Z,17.42
2017-06-29T00:06:05.321Z,17.42
2017-06-29T00:06:09.631Z,17.41
2017-06-29T00:06:14.074Z,17.41
2017-06-29T00:06:18.496Z,17.41
2017-06-29T00:06:22.926Z,17.4
2017-06-29T00:06:27.240Z,17.4
2017-06-29T00:06:31.660Z,17.41
2017-06-29T00:06:36.081Z,17.4
2017-06-29T00:06:40.504Z,17.4
2017-06-29T00:06:44.940Z,17.39
2017-06-29T00:06:49.245Z,17.4
2017-06-29T00:06:53.678Z,17.39
2017-06-29T00:06:58.100Z,17.39
2017-06-29T00:07:02.524Z,17.39
2017-06-29T00:07:06.867Z,17.38
2017-06-29T00:07:11.299Z,17.38
2017-06-29T00:07:15.727Z,17.38
2017-06-29T00:07:20.154Z,17.38
2017-06-29T00:07:24.458Z,17.38
2017-06-29T00:07:28.767Z,17.38
2017-06-29T00:07:33.195Z,17.37
2017-06-29T00:07:37.512Z,17.37
2017-06-29T00:07:41.821Z,17.36
2017-06-29T00:07:46.252Z,17.35
2017-06-29T00:07:50.742Z,17.36
2017-06-29T00:07:55.172Z,17.34
2017-06-29T00:07:59.603Z,17.36
2017-06-29T00:08:04.178Z,17.35
2017-06-29T00:08:08.615Z,17.34
2017-06-29T00:08:13.046Z,17.33
2017-06-29T00:08:17.472Z,17.34
2017-06-29T00:08:21.779Z,17.32
2017-06-29T00:08:26.093Z,17.32
2017-06-29T00:08:30.532Z,17.32
2017-06-29T00:08:34.960Z,17.31
2017-06-29T00:08:39.384Z,17.31
2017-06-29T00:08:43.807Z,17.31
2017-06-29T00:08:48.240Z,17.3
2017-06-29T00:08:52.562Z,17.3
2017-06-29T00:08:56.875Z,17.3
2017-06-29T00:09:01.304Z,17.3
2017-06-29T00:09:05.725Z,17.29
2017-06-29T00:09:10.151Z,17.28
2017-06-29T00:09:14.592Z,17.28
2017-06-29T00:09:19.016Z,17.29
2017-06-29T00:09:23.316Z,17.27
2017-06-29T00:09:27.622Z,17.27
2017-06-29T00:09:31.937Z,17.27
2017-06-29T00:09:36.397Z,17.26
2017-06-29T00:09:40.817Z,17.26
2017-06-29T00:09:45.134Z,17.26
2017-06-29T00:09:49.559Z,17.26
2017-06-29T00:09:54.028Z,17.25
2017-06-29T00:09:58.335Z,17.25
2017-06-29T00:10:03.008Z,17.25
2017-06-29T00:10:07.431Z,17.25
2017-06-29T00:10:11.743Z,17.23
2017-06-29T00:10:16.055Z,17.24
2017-06-29T00:10:20.477Z,17.23
2017-06-29T00:10:24.905Z,17.23
2017-06-29T00:10:29.331Z,17.23
2017-06-29T00:10:33.755Z,17.22
2017-06-29T00:10:38.185Z,17.22
2017-06-29T00:10:42.492Z,17.22
2017-06-29T00:10:46.796Z,17.21
2017-06-29T00:10:51.219Z,17.22
2017-06-29T00:10:55.689Z,17.21
2017-06-29T00:11:00.115Z,17.22
2017-06-29T00:11:04.740Z,17.21
2017-06-29T00:11:09.163Z,17.2
2017-06-29T00:11:13.586Z,17.2
2017-06-29T00:11:17.778Z,17.21
2017-06-29T00:11:22.204Z,17.21
2017-06-29T00:11:26.518Z,17.2
2017-06-29T00:11:30.942Z,17.2
2017-06-29T00:11:35.245Z,17.19
2017-06-29T00:11:39.675Z,17.2
2017-06-29T00:11:43.740Z,17.19
2017-06-29T00:11:48.044Z,17.2
2017-06-29T00:11:52.468Z,17.19
2017-06-29T00:11:56.896Z,17.19
2017-06-29T00:12:01.327Z,17.19
2017-06-29T00:12:05.632Z,17.19
2017-06-29T00:12:09.936Z,17.19
2017-06-29T00:12:14.244Z,17.18
2017-06-29T00:12:18.674Z,17.18
2017-06-29T00:12:23.097Z,17.19
2017-06-29T00:12:27.524Z,17.18
2017-06-29T00:12:31.949Z,17.18
2017-06-29T00:12:36.376Z,17.18
2017-06-29T00:12:40.810Z,17.17
2017-06-29T00:12:45.147Z,17.17
2017-06-29T00:12:49.570Z,17.17
2017-06-29T00:12:54.003Z,17.18
2017-06-29T00:12:58.445Z,17.17
2017-06-29T00:13:02.988Z,17.16
2017-06-29T00:13:07.299Z,17.17
2017-06-29T00:13:11.726Z,17.16
2017-06-29T00:13:16.151Z,17.16
2017-06-29T00:13:20.584Z,17.16
2017-06-29T00:13:25.020Z,17.17
2017-06-29T00:13:29.441Z,17.15
2017-06-29T00:13:33.864Z,17.15
2017-06-29T00:13:38.173Z,17.14
2017-06-29T00:13:42.614Z,17.14
2017-06-29T00:13:46.925Z,17.14
2017-06-29T00:13:51.349Z,17.14
2017-06-29T00:13:55.543Z,17.14
2017-06-29T00:13:59.971Z,17.13
2017-06-29T00:14:04.472Z,17.12
2017-06-29T00:14:08.890Z,17.12
2017-06-29T00:14:13.321Z,17.11
2017-06-29T00:14:17.757Z,17.11
2017-06-29T00:14:22.188Z,17.1
2017-06-29T00:14:26.629Z,17.1
2017-06-29T00:14:31.055Z,17.09
2017-06-29T00:14:35.489Z,17.09
2017-06-29T00:14:39.801Z,17.08
2017-06-29T00:14:44.249Z,17.08
2017-06-29T00:14:48.553Z,17.07
2017-06-29T00:14:52.976Z,17.06
2017-06-29T00:14:57.282Z,17.06
2017-06-29T00:15:01.772Z,17.05
2017-06-29T00:15:06.090Z,17.03
2017-06-29T00:15:10.282Z,17.03
2017-06-29T00:15:14.707Z,17.02
2017-06-29T00:15:19.137Z,17.02
2017-06-29T00:15:23.557Z,17.02
2017-06-29T00:15:27.994Z,17
2017-06-29T00:15:32.414Z,16.99
2017-06-29T00:15:36.845Z,16.98
2017-06-29T00:15:41.152Z,16.99
2017-06-29T00:15:45.469Z,16.98
2017-06-29T00:15:49.934Z,16.96
2017-06-29T00:15:54.355Z,16.96
2017-06-29T00:15:58.661Z,16.94
2017-06-29T00:16:03.015Z,16.94
2017-06-29T00:16:07.444Z,16.93
2017-06-29T00:16:11.750Z,16.92
2017-06-29T00:16:16.180Z,16.91
2017-06-29T00:16:20.608Z,16.9
2017-06-29T00:16:25.034Z,16.9
2017-06-29T00:16:29.465Z,16.88
2017-06-29T00:16:33.892Z,16.88
2017-06-29T00:16:38.196Z,16.87
2017-06-29T00:16:42.619Z,16.87
2017-06-29T00:16:47.048Z,16.85
2017-06-29T00:16:51.376Z,16.85
2017-06-29T00:16:55.682Z,16.85
2017-06-29T00:16:59.875Z,16.83
2017-06-29T00:17:04.182Z,16.83
2017-06-29T00:17:08.611Z,16.83
2017-06-29T00:17:13.051Z,16.82
2017-06-29T00:17:17.475Z,16.81
2017-06-29T00:17:21.904Z,16.8
2017-06-29T00:17:26.325Z,16.79
2017-06-29T00:17:30.759Z,16.79
2017-06-29T00:17:35.191Z,16.77
2017-06-29T00:17:39.619Z,16.77
2017-06-29T00:17:43.929Z,16.76
2017-06-29T00:17:48.361Z,16.76
2017-06-29T00:17:52.443Z,16.74
2017-06-29T00:17:56.762Z,16.73
2017-06-29T00:18:01.072Z,16.73
2017-06-29T00:18:05.548Z,16.72
2017-06-29T00:18:09.856Z,16.71
2017-06-29T00:18:14.291Z,16.7
2017-06-29T00:18:18.608Z,16.68
2017-06-29T00:18:23.036Z,16.68
2017-06-29T00:18:27.352Z,16.67
2017-06-29T00:18:31.784Z,16.66
2017-06-29T00:18:36.232Z,16.64
2017-06-29T00:18:40.552Z,16.63
2017-06-29T00:18:44.981Z,16.61
2017-06-29T00:18:49.407Z,16.6
2017-06-29T00:18:53.718Z,16.59
2017-06-29T00:18:58.144Z,16.58
2017-06-29T00:19:02.772Z,16.57
2017-06-29T00:19:07.078Z,16.57
2017-06-29T00:19:11.509Z,16.55
2017-06-29T00:19:15.943Z,16.53
2017-06-29T00:19:20.377Z,16.53
2017-06-29T00:19:24.808Z,16.51
2017-06-29T00:19:29.257Z,16.5
2017-06-29T00:19:33.684Z,16.49
2017-06-29T00:19:38.122Z,16.48
2017-06-29T00:19:42.459Z,16.47
2017-06-29T00:19:46.761Z,16.46
2017-06-29T00:19:50.834Z,16.44
2017-06-29T00:19:55.256Z,16.44
2017-06-29T00:19:59.575Z,16.42
2017-06-29T00:20:03.982Z,16.41
2017-06-29T00:20:08.167Z,16.38
2017-06-29T00:20:12.477Z,16.37
2017-06-29T00:20:16.903Z,16.35
2017-06-29T00:20:21.335Z,16.34
2017-06-29T00:20:25.758Z,16.34
2017-06-29T00:20:30.178Z,16.32
2017-06-29T00:20:34.607Z,16.31
2017-06-29T00:20:39.033Z,16.3
2017-06-29T00:20:43.474Z,16.28
2017-06-29T00:20:47.785Z,16.28
2017-06-29T00:20:52.206Z,16.25
2017-06-29T00:20:56.639Z,16.25
2017-06-29T00:21:01.111Z,16.23
2017-06-29T00:21:05.634Z,16.22
2017-06-29T00:21:09.822Z,16.21
2017-06-29T00:21:14.252Z,16.2
2017-06-29T00:21:18.686Z,16.2
2017-06-29T00:21:23.110Z,16.18
2017-06-29T00:21:27.412Z,16.16
2017-06-29T00:21:31.837Z,16.15
2017-06-29T00:21:36.254Z,16.15
2017-06-29T00:21:40.687Z,16.13
2017-06-29T00:21:44.995Z,16.12
2017-06-29T00:21:49.421Z,16.12
2017-06-29T00:21:53.726Z,16.11
2017-06-29T00:21:58.153Z,16.09
2017-06-29T00:22:02.461Z,16.08
2017-06-29T00:22:06.767Z,16.07
2017-06-29T00:22:11.087Z,16.06
2017-06-29T00:22:15.391Z,16.05
2017-06-29T00:22:19.814Z,16.04
2017-06-29T00:22:24.236Z,16.02
2017-06-29T00:22:28.659Z,16.02
2017-06-29T00:22:33.082Z,16
2017-06-29T00:22:37.502Z,16
2017-06-29T00:22:41.931Z,16
2017-06-29T00:22:46.234Z,15.98
2017-06-29T00:22:50.663Z,15.97
2017-06-29T00:22:55.085Z,15.95
2017-06-29T00:22:59.511Z,15.94
2017-06-29T00:23:03.831Z,15.93
2017-06-29T00:23:08.028Z,15.92
2017-06-29T00:23:12.337Z,15.92
2017-06-29T00:23:16.764Z,15.92
2017-06-29T00:23:21.192Z,15.91
2017-06-29T00:23:25.622Z,15.9
2017-06-29T00:23:30.047Z,15.89
2017-06-29T00:23:34.472Z,15.88
2017-06-29T00:23:38.664Z,15.87
2017-06-29T00:23:43.098Z,15.86
2017-06-29T00:23:47.401Z,15.85
2017-06-29T00:23:51.830Z,15.84
2017-06-29T00:23:56.254Z,15.83
2017-06-29T00:24:00.692Z,15.82
2017-06-29T00:24:05.003Z,15.79
2017-06-29T00:24:09.432Z,15.79
2017-06-29T00:24:13.854Z,15.78
2017-06-29T00:24:18.482Z,15.77
2017-06-29T00:24:22.912Z,15.77
2017-06-29T00:24:27.341Z,15.76
2017-06-29T00:24:31.768Z,15.75
2017-06-29T00:24:36.196Z,15.73
2017-06-29T00:24:40.511Z,15.73
2017-06-29T00:24:44.945Z,15.72
2017-06-29T00:24:49.369Z,15.7
2017-06-29T00:24:53.788Z,15.71
2017-06-29T00:24:58.220Z,15.71
2017-06-29T00:25:02.526Z,15.7
2017-06-29T00:25:06.720Z,15.69
2017-06-29T00:25:11.144Z,15.68
2017-06-29T00:25:15.573Z,15.67
2017-06-29T00:25:19.996Z,15.67
2017-06-29T00:25:24.309Z,15.67
2017-06-29T00:25:28.795Z,15.67
2017-06-29T00:25:33.103Z,15.66
2017-06-29T00:25:37.527Z,15.65
2017-06-29T00:25:41.948Z,15.64
2017-06-29T00:25:46.259Z,15.63
2017-06-29T00:25:50.687Z,15.63
2017-06-29T00:25:55.114Z,15.62
2017-06-29T00:25:59.542Z,15.62
2017-06-29T00:26:04.322Z,15.62
2017-06-29T00:26:08.639Z,15.61
2017-06-29T00:26:13.059Z,15.6
2017-06-29T00:26:17.483Z,15.6
2017-06-29T00:26:21.918Z,15.59
2017-06-29T00:26:26.348Z,15.58
2017-06-29T00:26:30.786Z,15.58
2017-06-29T00:26:35.090Z,15.57
2017-06-29T00:26:39.406Z,15.57
2017-06-29T00:26:43.833Z,15.56
2017-06-29T00:26:48.265Z,15.56
2017-06-29T00:26:52.691Z,15.56
2017-06-29T00:26:57.118Z,15.55
2017-06-29T00:27:01.544Z,15.54
2017-06-29T00:27:05.947Z,15.54
2017-06-29T00:27:10.255Z,15.53
2017-06-29T00:27:14.563Z,15.53
2017-06-29T00:27:18.985Z,15.52
2017-06-29T00:27:23.417Z,15.53
2017-06-29T00:27:27.730Z,15.52
2017-06-29T00:27:32.197Z,15.52
2017-06-29T00:27:36.622Z,15.51
2017-06-29T00:27:41.049Z,15.51
2017-06-29T00:27:45.369Z,15.51
2017-06-29T00:27:49.800Z,15.49
2017-06-29T00:27:54.111Z,15.5
2017-06-29T00:27:58.550Z,15.48
2017-06-29T00:28:02.980Z,15.47
2017-06-29T00:28:07.407Z,15.47
2017-06-29T00:28:11.498Z,15.47
2017-06-29T00:28:15.929Z,15.46
2017-06-29T00:28:20.244Z,15.46
2017-06-29T00:28:24.669Z,15.45
2017-06-29T00:28:28.865Z,15.45
2017-06-29T00:28:33.298Z,15.45
2017-06-29T00:28:37.718Z,15.45
2017-06-29T00:28:42.139Z,15.45
2017-06-29T00:28:46.571Z,15.44
2017-06-29T00:28:50.999Z,15.44
2017-06-29T00:28:55.468Z,15.43
2017-06-29T00:28:59.787Z,15.43
2017-06-29T00:29:03.974Z,15.43
2017-06-29T00:29:08.400Z,15.42
2017-06-29T00:29:12.839Z,15.42
2017-06-29T00:29:17.274Z,15.41
2017-06-29T00:29:21.585Z,15.42
2017-06-29T00:29:26.021Z,15.41
2017-06-29T00:29:30.449Z,15.4
2017-06-29T00:29:34.874Z,15.38
2017-06-29T00:29:39.298Z,15.38
2017-06-29T00:29:43.722Z,15.39
2017-06-29T00:29:48.032Z,15.38
2017-06-29T00:29:52.454Z,15.38
2017-06-29T00:29:56.882Z,15.38
2017-06-29T00:30:01.312Z,15.38
2017-06-29T00:30:05.386Z,15.38
2017-06-29T00:30:09.814Z,15.36
2017-06-29T00:30:14.136Z,15.37
2017-06-29T00:30:18.357Z,15.36
2017-06-29T00:30:22.779Z,15.37
2017-06-29T00:30:27.199Z,15.36
2017-06-29T00:30:31.624Z,15.35
2017-06-29T00:30:36.056Z,15.35
2017-06-29T00:30:40.493Z,15.34
2017-06-29T00:30:44.805Z,15.34
2017-06-29T00:30:49.229Z,15.34
2017-06-29T00:30:53.650Z,15.34
2017-06-29T00:30:58.077Z,15.32
2017-06-29T00:31:02.516Z,15.32
2017-06-29T00:31:06.946Z,15.31
2017-06-29T00:31:11.395Z,15.3
2017-06-29T00:31:15.816Z,15.31
2017-06-29T00:31:20.130Z,15.3
2017-06-29T00:31:24.554Z,15.29
2017-06-29T00:31:28.977Z,15.28
2017-06-29T00:31:33.398Z,15.28
2017-06-29T00:31:37.827Z,15.28
2017-06-29T00:31:42.279Z,15.28
2017-06-29T00:31:46.586Z,15.28
2017-06-29T00:31:50.888Z,15.27
2017-06-29T00:31:55.306Z,15.27
2017-06-29T00:31:59.743Z,15.26
2017-06-29T00:32:04.055Z,15.26
2017-06-29T00:32:08.243Z,15.26
2017-06-29T00:32:12.574Z,15.25
2017-06-29T00:32:17.001Z,15.25
2017-06-29T00:32:21.437Z,15.24
2017-06-29T00:32:25.870Z,15.24
2017-06-29T00:32:30.293Z,15.23
2017-06-29T00:32:34.717Z,15.23
2017-06-29T00:32:39.140Z,15.22
2017-06-29T00:32:43.575Z,15.22
2017-06-29T00:32:48.001Z,15.21
2017-06-29T00:32:52.424Z,15.19
2017-06-29T00:32:56.732Z,15.2
2017-06-29T00:33:01.163Z,15.2
2017-06-29T00:33:05.352Z,15.21
2017-06-29T00:33:09.548Z,15.19
2017-06-29T00:33:13.852Z,15.19
2017-06-29T00:33:18.279Z,15.19
2017-06-29T00:33:22.716Z,15.19
2017-06-29T00:33:27.146Z,15.19
2017-06-29T00:33:31.584Z,15.19
2017-06-29T00:33:36.007Z,15.17
2017-06-29T00:33:40.437Z,15.17
2017-06-29T00:33:44.757Z,15.17
2017-06-29T00:33:49.187Z,15.17
2017-06-29T00:33:53.614Z,15.17
2017-06-29T00:33:57.923Z,15.16
2017-06-29T00:34:02.353Z,15.15
2017-06-29T00:34:06.778Z,15.16
2017-06-29T00:34:11.086Z,15.15
2017-06-29T00:34:15.402Z,15.14
2017-06-29T00:34:19.840Z,15.14
2017-06-29T00:34:24.306Z,15.14
2017-06-29T00:34:28.749Z,15.13
2017-06-29T00:34:33.178Z,15.13
2017-06-29T00:34:37.600Z,15.13
2017-06-29T00:34:42.032Z,15.13
2017-06-29T00:34:46.507Z,15.12
2017-06-29T00:34:50.937Z,15.13
2017-06-29T00:34:55.366Z,15.12
2017-06-29T00:34:59.794Z,15.12
2017-06-29T00:35:03.988Z,15.12
2017-06-29T00:35:08.294Z,15.12
2017-06-29T00:35:12.621Z,15.13
2017-06-29T00:35:17.044Z,15.11
2017-06-29T00:35:21.346Z,15.12
2017-06-29T00:35:25.776Z,15.12
2017-06-29T00:35:30.200Z,15.11
2017-06-29T00:35:34.630Z,15.1
2017-06-29T00:35:39.055Z,15.09
2017-06-29T00:35:43.375Z,15.09
2017-06-29T00:35:47.808Z,15.1
2017-06-29T00:35:52.236Z,15.08
2017-06-29T00:35:56.658Z,15.09
2017-06-29T00:36:00.846Z,15.1
2017-06-29T00:36:05.273Z,15.09
2017-06-29T00:36:09.472Z,15.12
2017-06-29T00:36:13.895Z,15.11
2017-06-29T00:36:18.317Z,15.11
2017-06-29T00:36:22.739Z,15.11
2017-06-29T00:36:27.053Z,15.1
2017-06-29T00:36:31.487Z,15.09
2017-06-29T00:36:35.914Z,15.09
2017-06-29T00:36:40.338Z,15.08
2017-06-29T00:36:44.768Z,15.08
2017-06-29T00:36:49.192Z,15.08
2017-06-29T00:36:53.617Z,15.08
2017-06-29T00:36:58.047Z,15.07
2017-06-29T00:37:02.470Z,15.08
2017-06-29T00:37:06.892Z,15.07
2017-06-29T00:37:11.324Z,15.06
2017-06-29T00:37:15.745Z,15.06
2017-06-29T00:37:20.169Z,15.06
2017-06-29T00:37:24.597Z,15.06
2017-06-29T00:37:29.019Z,15.05
2017-06-29T00:37:33.449Z,15.06
2017-06-29T00:37:37.875Z,15.05
2017-06-29T00:37:42.185Z,15.05
2017-06-29T00:37:46.606Z,15.05
2017-06-29T00:37:51.024Z,15.04
2017-06-29T00:37:55.456Z,15.04
2017-06-29T00:37:59.683Z,15.04
2017-06-29T00:38:04.160Z,15.05
2017-06-29T00:38:08.586Z,15.05
2017-06-29T00:38:12.896Z,15.05
2017-06-29T00:38:17.364Z,15.04
2017-06-29T00:38:21.782Z,15.04
2017-06-29T00:38:26.211Z,15.04
2017-06-29T00:38:30.639Z,15.04
2017-06-29T00:38:35.070Z,15.04
2017-06-29T00:38:39.380Z,15.04
2017-06-29T00:38:43.805Z,15.04
2017-06-29T00:38:48.233Z,15.03
2017-06-29T00:38:52.657Z,15.04
2017-06-29T00:38:57.091Z,15.04
2017-06-29T00:39:01.397Z,15.04
2017-06-29T00:39:05.826Z,15.03
2017-06-29T00:39:10.251Z,15.02
2017-06-29T00:39:14.565Z,15.02
2017-06-29T00:39:19.024Z,15.03
2017-06-29T00:39:23.451Z,15.02
2017-06-29T00:39:27.757Z,15.03
2017-06-29T00:39:32.177Z,15.01
2017-06-29T00:39:36.607Z,15.02
2017-06-29T00:39:41.033Z,15.02
2017-06-29T00:39:45.455Z,15.01
2017-06-29T00:39:49.879Z,15.01
2017-06-29T00:39:54.186Z,15.01
2017-06-29T00:39:58.617Z,15.01
2017-06-29T00:40:03.010Z,15.01
2017-06-29T00:40:07.315Z,15.01
2017-06-29T00:40:11.624Z,15.01
2017-06-29T00:40:15.819Z,15.01
2017-06-29T00:40:20.250Z,15.01
2017-06-29T00:40:24.322Z,15
2017-06-29T00:40:28.741Z,15.01
2017-06-29T00:40:33.161Z,15.01
2017-06-29T00:40:37.589Z,15.01
2017-06-29T00:40:42.030Z,15
2017-06-29T00:40:46.343Z,15
2017-06-29T00:40:50.769Z,15.01
2017-06-29T00:40:55.076Z,15
2017-06-29T00:40:59.502Z,14.99
2017-06-29T00:41:04.164Z,15
2017-06-29T00:41:08.471Z,14.99
2017-06-29T00:41:12.895Z,15
2017-06-29T00:41:17.098Z,14.99
2017-06-29T00:41:21.519Z,14.99
2017-06-29T00:41:25.948Z,14.99
2017-06-29T00:41:30.377Z,15
2017-06-29T00:41:34.805Z,14.99
2017-06-29T00:41:39.235Z,14.99
2017-06-29T00:41:43.658Z,14.99
2017-06-29T00:41:48.079Z,14.99
2017-06-29T00:41:52.501Z,14.98
2017-06-29T00:41:56.812Z,14.99
2017-06-29T00:42:01.260Z,14.99
2017-06-29T00:42:05.931Z,14.98
2017-06-29T00:42:10.119Z,14.98
2017-06-29T00:42:14.424Z,14.98
2017-06-29T00:42:18.744Z,14.99
2017-06-29T00:42:23.047Z,14.99
2017-06-29T00:42:27.354Z,14.99
2017-06-29T00:42:31.663Z,14.99
2017-06-29T00:42:36.085Z,14.99
2017-06-29T00:42:40.520Z,14.98
2017-06-29T00:42:44.841Z,14.99
2017-06-29T00:42:49.149Z,14.98
2017-06-29T00:42:53.464Z,14.98
2017-06-29T00:42:57.899Z,14.97
2017-06-29T00:43:02.348Z,14.99
2017-06-29T00:43:06.774Z,14.99
2017-06-29T00:43:11.224Z,14.98
2017-06-29T00:43:15.662Z,14.98
2017-06-29T00:43:20.097Z,14.97
2017-06-29T00:43:24.298Z,14.98
2017-06-29T00:43:28.727Z,14.97
2017-06-29T00:43:33.147Z,14.98
2017-06-29T00:43:37.574Z,14.96
2017-06-29T00:43:42.019Z,14.97
2017-06-29T00:43:46.326Z,14.97
2017-06-29T00:43:50.750Z,14.97
2017-06-29T00:43:55.173Z,14.96
2017-06-29T00:43:59.607Z,14.96
2017-06-29T00:44:03.912Z,14.97
2017-06-29T00:44:08.116Z,14.96
2017-06-29T00:44:12.556Z,14.96
2017-06-29T00:44:16.991Z,14.96
2017-06-29T00:44:21.429Z,14.96
2017-06-29T00:44:25.863Z,14.97
2017-06-29T00:44:30.283Z,14.97
2017-06-29T00:44:34.708Z,14.96
2017-06-29T00:44:39.133Z,14.97
2017-06-29T00:44:43.334Z,14.97
2017-06-29T00:44:47.760Z,14.96
2017-06-29T00:44:52.191Z,14.96
2017-06-29T00:44:56.630Z,14.96
2017-06-29T00:45:01.103Z,14.97
2017-06-29T00:45:05.626Z,14.97
2017-06-29T00:45:09.935Z,14.97
2017-06-29T00:45:14.255Z,14.97
2017-06-29T00:45:18.563Z,14.98
2017-06-29T00:45:22.996Z,14.97
2017-06-29T00:45:27.301Z,14.97
2017-06-29T00:45:31.725Z,14.97
2017-06-29T00:45:36.151Z,14.96
2017-06-29T00:45:40.464Z,14.97
2017-06-29T00:45:44.817Z,14.96
2017-06-29T00:45:49.248Z,14.97
2017-06-29T00:45:53.673Z,14.97
2017-06-29T00:45:58.101Z,14.97
2017-06-29T00:46:02.533Z,14.97
2017-06-29T00:46:06.842Z,14.96
2017-06-29T00:46:11.151Z,14.96
2017-06-29T00:46:15.573Z,14.97
2017-06-29T00:46:20.002Z,14.97
2017-06-29T00:46:24.469Z,14.97
2017-06-29T00:46:28.897Z,14.97
2017-06-29T00:46:33.212Z,14.98
2017-06-29T00:46:37.514Z,14.98
2017-06-29T00:46:41.840Z,14.98
2017-06-29T00:46:46.268Z,14.98
2017-06-29T00:46:50.688Z,14.98
2017-06-29T00:46:55.115Z,14.97
2017-06-29T00:46:59.559Z,14.97
2017-06-29T00:47:03.921Z,14.97
2017-06-29T00:47:08.344Z,14.97
2017-06-29T00:47:12.538Z,14.97
2017-06-29T00:47:16.966Z,14.97
2017-06-29T00:47:21.389Z,14.97
2017-06-29T00:47:25.832Z,14.97
2017-06-29T00:47:30.257Z,14.97
2017-06-29T00:47:34.559Z,14.98
2017-06-29T00:47:38.984Z,14.97
2017-06-29T00:47:43.291Z,14.97
2017-06-29T00:47:47.722Z,14.98
2017-06-29T00:47:52.154Z,14.98
2017-06-29T00:47:56.594Z,14.98
2017-06-29T00:48:01.030Z,14.97
2017-06-29T00:48:05.334Z,14.98
2017-06-29T00:48:09.753Z,14.99
2017-06-29T00:48:14.202Z,14.98
2017-06-29T00:48:18.633Z,14.98
2017-06-29T00:48:23.078Z,14.99
2017-06-29T00:48:27.279Z,14.99
2017-06-29T00:48:31.718Z,14.99
2017-06-29T00:48:36.143Z,14.99
2017-06-29T00:48:40.571Z,14.98
2017-06-29T00:48:45.051Z,14.99
2017-06-29T00:48:49.483Z,14.99
2017-06-29T00:48:53.908Z,14.98
2017-06-29T00:48:58.339Z,14.98
2017-06-29T00:49:03.024Z,14.98
2017-06-29T00:49:07.448Z,14.98
2017-06-29T00:49:11.872Z,14.97
2017-06-29T00:49:16.300Z,14.98
2017-06-29T00:49:20.732Z,14.98
2017-06-29T00:49:25.177Z,14.97
2017-06-29T00:49:29.500Z,14.97
2017-06-29T00:49:33.928Z,14.97
2017-06-29T00:49:38.357Z,14.98
2017-06-29T00:49:42.788Z,14.97
2017-06-29T00:49:47.215Z,14.97
2017-06-29T00:49:51.639Z,14.97
2017-06-29T00:49:55.964Z,14.99
2017-06-29T00:50:00.394Z,14.98
2017-06-29T00:50:04.826Z,14.98
2017-06-29T00:50:09.260Z,14.98
2017-06-29T00:50:13.684Z,14.97
2017-06-29T00:50:17.991Z,14.98
2017-06-29T00:50:22.057Z,14.97
2017-06-29T00:50:26.494Z,14.97
2017-06-29T00:50:30.916Z,14.96
2017-06-29T00:50:35.336Z,14.97
2017-06-29T00:50:39.763Z,14.97
2017-06-29T00:50:44.073Z,14.98
2017-06-29T00:50:48.498Z,14.98
2017-06-29T00:50:52.964Z,14.98
2017-06-29T00:50:57.272Z,14.98
2017-06-29T00:51:01.693Z,14.97
2017-06-29T00:51:06.122Z,14.98
2017-06-29T00:51:10.554Z,14.97
2017-06-29T00:51:14.974Z,14.98
2017-06-29T00:51:19.155Z,14.98
2017-06-29T00:51:23.463Z,14.97
2017-06-29T00:51:27.807Z,14.97
2017-06-29T00:51:32.110Z,14.97
2017-06-29T00:51:36.543Z,14.96
2017-06-29T00:51:40.973Z,14.96
2017-06-29T00:51:45.400Z,14.95
2017-06-29T00:51:49.834Z,14.96
2017-06-29T00:51:54.260Z,14.95
2017-06-29T00:51:58.691Z,14.95
2017-06-29T00:52:03.417Z,14.96
2017-06-29T00:52:07.726Z,14.95
2017-06-29T00:52:12.041Z,14.96
2017-06-29T00:52:16.352Z,14.96
2017-06-29T00:52:20.656Z,14.95
2017-06-29T00:52:24.959Z,14.95
2017-06-29T00:52:29.392Z,14.95
2017-06-29T00:52:33.818Z,14.95
2017-06-29T00:52:38.239Z,14.95
2017-06-29T00:52:42.428Z,14.95
2017-06-29T00:52:46.850Z,14.94
2017-06-29T00:52:51.294Z,14.95
2017-06-29T00:52:55.731Z,14.94
2017-06-29T00:53:00.153Z,14.94
2017-06-29T00:53:04.657Z,14.93
2017-06-29T00:53:08.964Z,14.93
2017-06-29T00:53:13.415Z,14.94
2017-06-29T00:53:17.725Z,14.94
2017-06-29T00:53:21.910Z,14.93
2017-06-29T00:53:26.219Z,14.93
2017-06-29T00:53:30.663Z,14.93
2017-06-29T00:53:35.093Z,14.93
2017-06-29T00:53:39.516Z,14.92
2017-06-29T00:53:43.937Z,14.92
2017-06-29T00:53:48.360Z,14.92
2017-06-29T00:53:52.791Z,14.91
2017-06-29T00:53:57.249Z,14.92
2017-06-29T00:54:01.672Z,14.92
2017-06-29T00:54:06.097Z,14.91
2017-06-29T00:54:10.166Z,14.91
2017-06-29T00:54:14.599Z,14.91
2017-06-29T00:54:18.913Z,14.91
2017-06-29T00:54:23.225Z,14.91
2017-06-29T00:54:27.665Z,14.9
2017-06-29T00:54:32.091Z,14.9
2017-06-29T00:54:36.428Z,14.9
2017-06-29T00:54:40.852Z,14.9
2017-06-29T00:54:45.280Z,14.89
2017-06-29T00:54:49.722Z,14.89
2017-06-29T00:54:54.151Z,14.9
2017-06-29T00:54:58.471Z,14.89
2017-06-29T00:55:02.775Z,14.89
2017-06-29T00:55:07.080Z,14.89
2017-06-29T00:55:11.157Z,14.88
2017-06-29T00:55:15.586Z,14.88
2017-06-29T00:55:19.925Z,14.87
2017-06-29T00:55:24.346Z,14.89
2017-06-29T00:55:28.660Z,14.87
2017-06-29T00:55:33.086Z,14.88
2017-06-29T00:55:37.274Z,14.87
2017-06-29T00:55:41.705Z,14.87
2017-06-29T00:55:46.018Z,14.88
2017-06-29T00:55:50.441Z,14.88
2017-06-29T00:55:54.744Z,14.87
2017-06-29T00:55:58.939Z,14.87
2017-06-29T00:56:03.366Z,14.88
2017-06-29T00:56:07.797Z,14.88
2017-06-29T00:56:12.231Z,14.88
2017-06-29T00:56:16.662Z,14.87
2017-06-29T00:56:21.097Z,14.87
2017-06-29T00:56:25.526Z,14.87
2017-06-29T00:56:29.947Z,14.87
2017-06-29T00:56:34.365Z,14.88
2017-06-29T00:56:38.789Z,14.87
2017-06-29T00:56:43.229Z,14.87